Lake Leake, Tasmania

8:14 PM EST on July 26, 2014 (GMT +1000)
Launceston (YMLT) Elev 561 ft | 41.55 °S, 147.21 °E | Change Station

Current weather conditions updated 14 minutes ago

Mostly Cloudy
Mostly Cloudy
46 °F
Feels Like 46 °F
N
0
Wind Variable Wind from North

Tomorrow is forecast to be Cooler than today. Showers late tomorrow night.

Today
High -- | Low -- °F
--% Chance of Precip.
Yesterday
High -- | Low -- °F
Precip. -- in
7:24 AM 5:06 PM
Waning Crescent, 0% visible
Pressure 30.12 in
Visibility 6.2 miles
Clouds Mostly Cloudy 6600 ft
Dew Point 45 °F
Humidity 93%
Rainfall 0.00 in
Snow Depth Not available.
UV 0 out of 12
Pollen Not available.
Air Quality Not available.
Flu Activity Not available.
METAR YMLT 261000Z AUTO 00000KT 9999 // BKN066 08/07 Q1020

More Conditions Fewer Conditions

Pressure 30.12 in
Visibility 6.2 miles
Clouds Mostly Cloudy 6600 ft
Dew Point 45 °F
Humidity 93%
Rainfall 0.00 in
Snow Depth Not available.
UV 0 out of 12
Pollen Not available.
Air Quality Not available.
Flu Activity Not available.
METAR YMLT 261000Z AUTO 00000KT 9999 // BKN066 08/07 Q1020

More Conditions Fewer Conditions

10-Day Weather Forecast

Almanac

Astronomy

Jul. 26, 2014 Rise Set
Actual Time 7:24 AM EST 5:06 PM EST
Civil Twilight 6:54 AM EST 5:36 PM EST
Nautical Twilight 6:20 AM EST 6:10 PM EST
Astronomical Twilight 5:47 AM EST 6:43 PM EST
Moon 6:25 AM EST 4:40 PM EST
Length of Visible Light 10h 42m
Length of Day
9h 41m
Tomorrow will be 1m 52s longer.
Waning Crescent, 0% of the Moon is Illuminated
Today
Waning Crescent
Jul 26
New
Aug 3
First Quarter
Aug 10
Full
Aug 17
Last Quarter

Yesterday's Extremes

Country Highs Country Lows

Community

WunderPhotos

Upload Photos

1,737,529 photos uploaded!

Nearby

Snow Depth

Not available.

Earthquake Activity

City Distance Mag. Time & Date
No recent earthquake activity has been reported nearby.
Minimum magnitude displayed is 2.5.

Coastal Water Temperatures

Place Temperature
No Stations Reporting

Nearby Weather Stations

There are no personal weather stations in this area.